sensor_id;sensor_type;location;lat;lon;timestamp;P1;durP1;ratioP1;P2;durP2;ratioP2
29382;SDS011;16365;51.598;7.668;2023-02-15T00:02:01;41.83;;;20.92;;
29382;SDS011;16365;51.598;7.668;2023-02-15T00:04:28;43.70;;;21.52;;
29382;SDS011;16365;51.598;7.668;2023-02-15T00:07:13;37.03;;;20.73;;
29382;SDS011;16365;51.598;7.668;2023-02-15T00:12:08;35.65;;;18.02;;
29382;SDS011;16365;51.598;7.668;2023-02-15T00:14:35;36.75;;;18.67;;
29382;SDS011;16365;51.598;7.668;2023-02-15T00:17:02;30.02;;;16.60;;
29382;SDS011;16365;51.598;7.668;2023-02-15T00:19:29;30.55;;;17.48;;
29382;SDS011;16365;51.598;7.668;2023-02-15T00:21:57;34.50;;;18.40;;
29382;SDS011;16365;51.598;7.668;2023-02-15T00:24:23;33.15;;;17.90;;
29382;SDS011;16365;51.598;7.668;2023-02-15T00:26:50;33.42;;;17.08;;
29382;SDS011;16365;51.598;7.668;2023-02-15T00:29:17;36.67;;;19.88;;
29382;SDS011;16365;51.598;7.668;2023-02-15T00:34:13;40.30;;;19.65;;
29382;SDS011;16365;51.598;7.668;2023-02-15T00:36:49;39.42;;;19.55;;
29382;SDS011;16365;51.598;7.668;2023-02-15T00:39:16;36.85;;;18.45;;
29382;SDS011;16365;51.598;7.668;2023-02-15T00:41:43;38.45;;;17.35;;
29382;SDS011;16365;51.598;7.668;2023-02-15T00:44:10;35.58;;;18.63;;
29382;SDS011;16365;51.598;7.668;2023-02-15T00:46:37;36.42;;;18.67;;
29382;SDS011;16365;51.598;7.668;2023-02-15T00:49:04;36.60;;;18.05;;
29382;SDS011;16365;51.598;7.668;2023-02-15T00:51:31;36.97;;;17.65;;
29382;SDS011;16365;51.598;7.668;2023-02-15T00:53:58;37.67;;;19.20;;
29382;SDS011;16365;51.598;7.668;2023-02-15T00:56:24;41.40;;;19.40;;
29382;SDS011;16365;51.598;7.668;2023-02-15T00:58:51;36.10;;;17.75;;
29382;SDS011;16365;51.598;7.668;2023-02-15T01:01:18;35.50;;;18.50;;
29382;SDS011;16365;51.598;7.668;2023-02-15T01:03:46;34.38;;;18.40;;
29382;SDS011;16365;51.598;7.668;2023-02-15T01:06:13;33.53;;;17.80;;
29382;SDS011;16365;51.598;7.668;2023-02-15T01:11:09;36.95;;;19.08;;
29382;SDS011;16365;51.598;7.668;2023-02-15T01:13:37;36.42;;;18.05;;
29382;SDS011;16365;51.598;7.668;2023-02-15T01:16:06;35.88;;;17.55;;
29382;SDS011;16365;51.598;7.668;2023-02-15T01:18:33;33.25;;;17.25;;
29382;SDS011;16365;51.598;7.668;2023-02-15T01:21:08;38.28;;;18.05;;
29382;SDS011;16365;51.598;7.668;2023-02-15T01:23:40;35.13;;;17.20;;
29382;SDS011;16365;51.598;7.668;2023-02-15T01:26:08;35.85;;;18.08;;
29382;SDS011;16365;51.598;7.668;2023-02-15T01:28:35;33.80;;;17.77;;
29382;SDS011;16365;51.598;7.668;2023-02-15T01:31:06;34.67;;;17.80;;
29382;SDS011;16365;51.598;7.668;2023-02-15T01:33:37;36.70;;;17.67;;
29382;SDS011;16365;51.598;7.668;2023-02-15T01:36:04;39.47;;;19.48;;
29382;SDS011;16365;51.598;7.668;2023-02-15T01:38:32;39.72;;;18.63;;
29382;SDS011;16365;51.598;7.668;2023-02-15T01:41:01;38.17;;;19.60;;
29382;SDS011;16365;51.598;7.668;2023-02-15T01:46:18;35.28;;;17.95;;
29382;SDS011;16365;51.598;7.668;2023-02-15T01:48:50;39.15;;;18.25;;
29382;SDS011;16365;51.598;7.668;2023-02-15T01:51:21;35.63;;;19.00;;
29382;SDS011;16365;51.598;7.668;2023-02-15T01:53:53;37.63;;;17.70;;
29382;SDS011;16365;51.598;7.668;2023-02-15T01:56:29;35.05;;;17.38;;
29382;SDS011;16365;51.598;7.668;2023-02-15T01:58:59;33.67;;;16.40;;
29382;SDS011;16365;51.598;7.668;2023-02-15T02:01:31;32.85;;;16.48;;
29382;SDS011;16365;51.598;7.668;2023-02-15T02:06:39;35.63;;;17.48;;
29382;SDS011;16365;51.598;7.668;2023-02-15T02:09:06;30.88;;;16.17;;
29382;SDS011;16365;51.598;7.668;2023-02-15T02:11:33;32.92;;;16.70;;
29382;SDS011;16365;51.598;7.668;2023-02-15T02:14:00;32.90;;;15.88;;
29382;SDS011;16365;51.598;7.668;2023-02-15T02:28:57;33.47;;;17.70;;
29382;SDS011;16365;51.598;7.668;2023-02-15T02:34:35;32.37;;;16.27;;
29382;SDS011;16365;51.598;7.668;2023-02-15T02:37:28;33.92;;;15.68;;
29382;SDS011;16365;51.598;7.668;2023-02-15T02:40:03;38.30;;;16.83;;
29382;SDS011;16365;51.598;7.668;2023-02-15T02:42:49;30.90;;;15.88;;
29382;SDS011;16365;51.598;7.668;2023-02-15T02:45:21;32.50;;;15.27;;
29382;SDS011;16365;51.598;7.668;2023-02-15T02:47:52;34.65;;;16.15;;
29382;SDS011;16365;51.598;7.668;2023-02-15T02:50:28;31.58;;;16.00;;
29382;SDS011;16365;51.598;7.668;2023-02-15T02:52:56;26.92;;;15.00;;
29382;SDS011;16365;51.598;7.668;2023-02-15T02:55:35;30.50;;;15.77;;
29382;SDS011;16365;51.598;7.668;2023-02-15T03:00:36;32.58;;;15.48;;
29382;SDS011;16365;51.598;7.668;2023-02-15T03:03:10;39.13;;;17.40;;
29382;SDS011;16365;51.598;7.668;2023-02-15T03:05:41;33.25;;;16.17;;
29382;SDS011;16365;51.598;7.668;2023-02-15T03:08:11;41.75;;;17.73;;
29382;SDS011;16365;51.598;7.668;2023-02-15T03:10:48;33.22;;;17.02;;
29382;SDS011;16365;51.598;7.668;2023-02-15T03:13:18;29.23;;;15.18;;
29382;SDS011;16365;51.598;7.668;2023-02-15T03:15:45;29.25;;;15.27;;
29382;SDS011;16365;51.598;7.668;2023-02-15T03:18:33;39.13;;;17.52;;
29382;SDS011;16365;51.598;7.668;2023-02-15T03:21:05;32.75;;;17.02;;
29382;SDS011;16365;51.598;7.668;2023-02-15T03:23:35;31.05;;;16.52;;
29382;SDS011;16365;51.598;7.668;2023-02-15T03:26:05;33.33;;;17.40;;
29382;SDS011;16365;51.598;7.668;2023-02-15T03:28:36;34.95;;;17.33;;
29382;SDS011;16365;51.598;7.668;2023-02-15T03:31:07;33.65;;;16.30;;
29382;SDS011;16365;51.598;7.668;2023-02-15T03:33:36;39.10;;;18.05;;
29382;SDS011;16365;51.598;7.668;2023-02-15T03:38:55;37.13;;;17.70;;
29382;SDS011;16365;51.598;7.668;2023-02-15T03:41:45;39.58;;;17.33;;
29382;SDS011;16365;51.598;7.668;2023-02-15T03:44:22;36.60;;;17.67;;
29382;SDS011;16365;51.598;7.668;2023-02-15T03:49:42;35.35;;;18.23;;
29382;SDS011;16365;51.598;7.668;2023-02-15T03:52:13;29.98;;;16.80;;
29382;SDS011;16365;51.598;7.668;2023-02-15T03:54:42;33.38;;;15.82;;
29382;SDS011;16365;51.598;7.668;2023-02-15T03:57:12;30.58;;;15.25;;
29382;SDS011;16365;51.598;7.668;2023-02-15T04:00:03;35.97;;;16.88;;
29382;SDS011;16365;51.598;7.668;2023-02-15T04:02:55;33.22;;;15.27;;
29382;SDS011;16365;51.598;7.668;2023-02-15T04:05:42;30.23;;;13.63;;
29382;SDS011;16365;51.598;7.668;2023-02-15T04:08:10;36.45;;;16.38;;
29382;SDS011;16365;51.598;7.668;2023-02-15T04:10:38;31.65;;;16.00;;
29382;SDS011;16365;51.598;7.668;2023-02-15T04:13:23;30.48;;;16.23;;
29382;SDS011;16365;51.598;7.668;2023-02-15T04:15:55;35.22;;;16.52;;
29382;SDS011;16365;51.598;7.668;2023-02-15T04:18:34;34.77;;;16.67;;
29382;SDS011;16365;51.598;7.668;2023-02-15T04:21:21;36.55;;;16.15;;
29382;SDS011;16365;51.598;7.668;2023-02-15T04:24:07;35.58;;;16.42;;
29382;SDS011;16365;51.598;7.668;2023-02-15T04:26:53;27.80;;;14.80;;
29382;SDS011;16365;51.598;7.668;2023-02-15T04:29:20;32.13;;;15.43;;
29382;SDS011;16365;51.598;7.668;2023-02-15T04:31:48;28.83;;;15.30;;
29382;SDS011;16365;51.598;7.668;2023-02-15T04:34:15;29.13;;;16.20;;
29382;SDS011;16365;51.598;7.668;2023-02-15T04:36:42;32.75;;;15.57;;
29382;SDS011;16365;51.598;7.668;2023-02-15T04:39:12;27.80;;;14.90;;
29382;SDS011;16365;51.598;7.668;2023-02-15T04:41:39;31.90;;;15.48;;
29382;SDS011;16365;51.598;7.668;2023-02-15T04:44:06;32.28;;;16.48;;
29382;SDS011;16365;51.598;7.668;2023-02-15T04:46:36;27.17;;;15.25;;
29382;SDS011;16365;51.598;7.668;2023-02-15T04:49:03;32.55;;;15.80;;
29382;SDS011;16365;51.598;7.668;2023-02-15T04:51:30;29.92;;;14.57;;
29382;SDS011;16365;51.598;7.668;2023-02-15T04:53:56;31.13;;;14.20;;
29382;SDS011;16365;51.598;7.668;2023-02-15T04:56:23;37.58;;;17.20;;
29382;SDS011;16365;51.598;7.668;2023-02-15T04:58:49;33.17;;;16.08;;
29382;SDS011;16365;51.598;7.668;2023-02-15T05:01:16;30.90;;;16.15;;
29382;SDS011;16365;51.598;7.668;2023-02-15T05:03:43;31.67;;;16.87;;
29382;SDS011;16365;51.598;7.668;2023-02-15T05:06:10;31.25;;;15.98;;
29382;SDS011;16365;51.598;7.668;2023-02-15T05:08:36;30.52;;;16.20;;
29382;SDS011;16365;51.598;7.668;2023-02-15T05:11:03;34.25;;;16.75;;
29382;SDS011;16365;51.598;7.668;2023-02-15T05:13:29;33.28;;;15.90;;
29382;SDS011;16365;51.598;7.668;2023-02-15T05:15:56;30.80;;;14.80;;
29382;SDS011;16365;51.598;7.668;2023-02-15T05:18:22;31.48;;;15.60;;
29382;SDS011;16365;51.598;7.668;2023-02-15T05:20:49;34.25;;;16.02;;
29382;SDS011;16365;51.598;7.668;2023-02-15T05:23:15;33.78;;;16.05;;
29382;SDS011;16365;51.598;7.668;2023-02-15T05:25:46;34.72;;;16.75;;
29382;SDS011;16365;51.598;7.668;2023-02-15T05:28:35;35.35;;;16.48;;
29382;SDS011;16365;51.598;7.668;2023-02-15T05:33:43;27.50;;;15.38;;
29382;SDS011;16365;51.598;7.668;2023-02-15T05:36:10;33.50;;;15.63;;
29382;SDS011;16365;51.598;7.668;2023-02-15T05:38:37;31.60;;;16.63;;
29382;SDS011;16365;51.598;7.668;2023-02-15T05:41:07;29.73;;;15.18;;
29382;SDS011;16365;51.598;7.668;2023-02-15T05:43:35;31.05;;;15.98;;
29382;SDS011;16365;51.598;7.668;2023-02-15T05:46:03;28.67;;;14.43;;
29382;SDS011;16365;51.598;7.668;2023-02-15T05:48:32;33.22;;;16.40;;
29382;SDS011;16365;51.598;7.668;2023-02-15T05:50:59;33.05;;;16.60;;
29382;SDS011;16365;51.598;7.668;2023-02-15T05:53:31;34.72;;;15.65;;
29382;SDS011;16365;51.598;7.668;2023-02-15T05:56:00;33.55;;;16.42;;
29382;SDS011;16365;51.598;7.668;2023-02-15T05:58:36;37.35;;;16.80;;
29382;SDS011;16365;51.598;7.668;2023-02-15T06:01:08;31.35;;;15.48;;
29382;SDS011;16365;51.598;7.668;2023-02-15T06:03:38;28.27;;;15.32;;
29382;SDS011;16365;51.598;7.668;2023-02-15T06:06:05;40.15;;;18.27;;
29382;SDS011;16365;51.598;7.668;2023-02-15T06:08:33;39.17;;;17.75;;
29382;SDS011;16365;51.598;7.668;2023-02-15T06:11:00;34.65;;;16.38;;
29382;SDS011;16365;51.598;7.668;2023-02-15T06:13:27;33.97;;;16.92;;
29382;SDS011;16365;51.598;7.668;2023-02-15T06:15:54;37.35;;;16.25;;
29382;SDS011;16365;51.598;7.668;2023-02-15T06:18:21;32.90;;;15.52;;
29382;SDS011;16365;51.598;7.668;2023-02-15T06:20:47;29.67;;;14.82;;
29382;SDS011;16365;51.598;7.668;2023-02-15T06:23:14;32.80;;;16.83;;
29382;SDS011;16365;51.598;7.668;2023-02-15T06:25:41;30.92;;;16.30;;
29382;SDS011;16365;51.598;7.668;2023-02-15T06:28:08;35.95;;;15.77;;
29382;SDS011;16365;51.598;7.668;2023-02-15T06:30:34;42.28;;;19.33;;
29382;SDS011;16365;51.598;7.668;2023-02-15T06:33:01;33.42;;;16.92;;
29382;SDS011;16365;51.598;7.668;2023-02-15T06:35:27;34.80;;;18.42;;
29382;SDS011;16365;51.598;7.668;2023-02-15T06:37:54;35.15;;;16.83;;
29382;SDS011;16365;51.598;7.668;2023-02-15T06:40:20;37.55;;;18.90;;
29382;SDS011;16365;51.598;7.668;2023-02-15T06:42:47;34.60;;;16.65;;
29382;SDS011;16365;51.598;7.668;2023-02-15T06:45:15;47.85;;;17.77;;
29382;SDS011;16365;51.598;7.668;2023-02-15T06:47:41;39.63;;;17.75;;
29382;SDS011;16365;51.598;7.668;2023-02-15T06:50:09;33.63;;;16.17;;
29382;SDS011;16365;51.598;7.668;2023-02-15T06:52:36;39.80;;;18.20;;
29382;SDS011;16365;51.598;7.668;2023-02-15T06:55:02;38.78;;;17.40;;
29382;SDS011;16365;51.598;7.668;2023-02-15T06:57:29;38.60;;;18.58;;
29382;SDS011;16365;51.598;7.668;2023-02-15T06:59:56;44.20;;;19.50;;
29382;SDS011;16365;51.598;7.668;2023-02-15T07:02:24;39.83;;;17.75;;
29382;SDS011;16365;51.598;7.668;2023-02-15T07:04:50;36.70;;;16.85;;
29382;SDS011;16365;51.598;7.668;2023-02-15T07:07:17;36.75;;;17.50;;
29382;SDS011;16365;51.598;7.668;2023-02-15T07:09:43;35.55;;;17.10;;
29382;SDS011;16365;51.598;7.668;2023-02-15T07:12:10;37.15;;;18.60;;
29382;SDS011;16365;51.598;7.668;2023-02-15T07:14:55;38.70;;;18.90;;
29382;SDS011;16365;51.598;7.668;2023-02-15T07:17:22;46.75;;;19.25;;
29382;SDS011;16365;51.598;7.668;2023-02-15T07:20:05;39.08;;;19.02;;
29382;SDS011;16365;51.598;7.668;2023-02-15T07:22:34;43.47;;;19.33;;
29382;SDS011;16365;51.598;7.668;2023-02-15T07:25:03;43.33;;;19.02;;
29382;SDS011;16365;51.598;7.668;2023-02-15T07:27:30;34.20;;;17.40;;
29382;SDS011;16365;51.598;7.668;2023-02-15T07:29:58;33.78;;;17.52;;
29382;SDS011;16365;51.598;7.668;2023-02-15T07:32:29;44.97;;;20.38;;
29382;SDS011;16365;51.598;7.668;2023-02-15T07:34:57;42.30;;;18.52;;
29382;SDS011;16365;51.598;7.668;2023-02-15T07:37:23;35.53;;;17.50;;
29382;SDS011;16365;51.598;7.668;2023-02-15T07:39:51;47.72;;;20.10;;
29382;SDS011;16365;51.598;7.668;2023-02-15T07:42:18;36.78;;;18.35;;
29382;SDS011;16365;51.598;7.668;2023-02-15T07:44:46;42.42;;;19.55;;
29382;SDS011;16365;51.598;7.668;2023-02-15T07:47:15;48.22;;;19.60;;
29382;SDS011;16365;51.598;7.668;2023-02-15T07:49:42;41.58;;;20.70;;
29382;SDS011;16365;51.598;7.668;2023-02-15T07:52:08;45.25;;;20.48;;
29382;SDS011;16365;51.598;7.668;2023-02-15T07:54:35;42.35;;;20.85;;
29382;SDS011;16365;51.598;7.668;2023-02-15T07:57:01;40.65;;;20.17;;
29382;SDS011;16365;51.598;7.668;2023-02-15T07:59:28;42.25;;;18.80;;
29382;SDS011;16365;51.598;7.668;2023-02-15T08:01:55;36.15;;;18.42;;
29382;SDS011;16365;51.598;7.668;2023-02-15T08:04:22;37.83;;;18.52;;
29382;SDS011;16365;51.598;7.668;2023-02-15T08:06:51;49.70;;;20.65;;
29382;SDS011;16365;51.598;7.668;2023-02-15T08:09:19;41.83;;;19.60;;
29382;SDS011;16365;51.598;7.668;2023-02-15T08:11:46;38.50;;;19.75;;
29382;SDS011;16365;51.598;7.668;2023-02-15T08:14:14;45.33;;;21.00;;
29382;SDS011;16365;51.598;7.668;2023-02-15T08:19:17;45.78;;;20.58;;
29382;SDS011;16365;51.598;7.668;2023-02-15T08:21:45;53.45;;;21.60;;
29382;SDS011;16365;51.598;7.668;2023-02-15T08:24:13;43.53;;;20.58;;
29382;SDS011;16365;51.598;7.668;2023-02-15T08:26:41;55.50;;;23.38;;
29382;SDS011;16365;51.598;7.668;2023-02-15T08:29:09;41.72;;;20.95;;
29382;SDS011;16365;51.598;7.668;2023-02-15T08:31:35;42.30;;;22.40;;
29382;SDS011;16365;51.598;7.668;2023-02-15T08:34:04;44.33;;;22.00;;
29382;SDS011;16365;51.598;7.668;2023-02-15T08:36:31;47.80;;;22.65;;
29382;SDS011;16365;51.598;7.668;2023-02-15T08:39:00;42.97;;;21.05;;
29382;SDS011;16365;51.598;7.668;2023-02-15T08:41:33;45.13;;;22.08;;
29382;SDS011;16365;51.598;7.668;2023-02-15T08:44:04;52.15;;;22.98;;
29382;SDS011;16365;51.598;7.668;2023-02-15T08:46:34;53.63;;;26.65;;
29382;SDS011;16365;51.598;7.668;2023-02-15T08:49:02;49.83;;;24.58;;
29382;SDS011;16365;51.598;7.668;2023-02-15T08:51:32;50.13;;;23.65;;
29382;SDS011;16365;51.598;7.668;2023-02-15T08:54:01;42.70;;;22.80;;
29382;SDS011;16365;51.598;7.668;2023-02-15T08:56:32;52.60;;;23.30;;
29382;SDS011;16365;51.598;7.668;2023-02-15T08:59:01;46.35;;;23.00;;
29382;SDS011;16365;51.598;7.668;2023-02-15T09:01:29;48.20;;;23.85;;
29382;SDS011;16365;51.598;7.668;2023-02-15T09:03:58;44.38;;;22.08;;
29382;SDS011;16365;51.598;7.668;2023-02-15T09:06:30;50.33;;;23.25;;
29382;SDS011;16365;51.598;7.668;2023-02-15T09:08:56;47.58;;;24.20;;
29382;SDS011;16365;51.598;7.668;2023-02-15T09:11:24;47.50;;;24.00;;
29382;SDS011;16365;51.598;7.668;2023-02-15T09:13:58;47.00;;;23.25;;
29382;SDS011;16365;51.598;7.668;2023-02-15T09:16:27;50.60;;;24.08;;
29382;SDS011;16365;51.598;7.668;2023-02-15T09:18:55;50.63;;;24.95;;
29382;SDS011;16365;51.598;7.668;2023-02-15T09:21:24;51.30;;;24.08;;
29382;SDS011;16365;51.598;7.668;2023-02-15T09:23:55;49.20;;;23.48;;
29382;SDS011;16365;51.598;7.668;2023-02-15T09:26:28;50.42;;;22.42;;
29382;SDS011;16365;51.598;7.668;2023-02-15T09:28:58;48.40;;;24.15;;
29382;SDS011;16365;51.598;7.668;2023-02-15T09:31:28;49.20;;;23.95;;
29382;SDS011;16365;51.598;7.668;2023-02-15T09:33:56;42.65;;;22.85;;
29382;SDS011;16365;51.598;7.668;2023-02-15T09:36:26;53.72;;;24.58;;
29382;SDS011;16365;51.598;7.668;2023-02-15T09:38:55;49.08;;;24.15;;
29382;SDS011;16365;51.598;7.668;2023-02-15T09:55:48;54.05;;;25.15;;
29382;SDS011;16365;51.598;7.668;2023-02-15T09:58:38;52.40;;;23.42;;
29382;SDS011;16365;51.598;7.668;2023-02-15T10:01:35;47.25;;;24.05;;
29382;SDS011;16365;51.598;7.668;2023-02-15T10:04:27;46.85;;;23.70;;
29382;SDS011;16365;51.598;7.668;2023-02-15T10:07:22;38.55;;;21.30;;
29382;SDS011;16365;51.598;7.668;2023-02-15T10:10:14;45.05;;;22.83;;
29382;SDS011;16365;51.598;7.668;2023-02-15T10:13:19;49.60;;;21.20;;
29382;SDS011;16365;51.598;7.668;2023-02-15T10:16:29;41.25;;;20.08;;
29382;SDS011;16365;51.598;7.668;2023-02-15T10:25:20;37.30;;;18.55;;
29382;SDS011;16365;51.598;7.668;2023-02-15T10:28:04;35.78;;;17.75;;
29382;SDS011;16365;51.598;7.668;2023-02-15T10:30:42;38.25;;;17.92;;
29382;SDS011;16365;51.598;7.668;2023-02-15T10:38:36;37.95;;;17.67;;
29382;SDS011;16365;51.598;7.668;2023-02-15T10:41:24;39.40;;;18.33;;
29382;SDS011;16365;51.598;7.668;2023-02-15T10:47:14;33.72;;;17.33;;
29382;SDS011;16365;51.598;7.668;2023-02-15T10:52:40;37.13;;;17.63;;
29382;SDS011;16365;51.598;7.668;2023-02-15T10:58:31;36.58;;;16.65;;
29382;SDS011;16365;51.598;7.668;2023-02-15T11:01:22;31.50;;;16.23;;
29382;SDS011;16365;51.598;7.668;2023-02-15T11:06:54;34.50;;;16.17;;
29382;SDS011;16365;51.598;7.668;2023-02-15T11:09:29;34.42;;;16.88;;
29382;SDS011;16365;51.598;7.668;2023-02-15T11:12:04;30.70;;;15.35;;
29382;SDS011;16365;51.598;7.668;2023-02-15T11:17:28;32.67;;;15.43;;
29382;SDS011;16365;51.598;7.668;2023-02-15T11:20:08;32.22;;;16.00;;
29382;SDS011;16365;51.598;7.668;2023-02-15T11:22:49;36.35;;;16.13;;
29382;SDS011;16365;51.598;7.668;2023-02-15T11:25:18;35.75;;;15.60;;
29382;SDS011;16365;51.598;7.668;2023-02-15T11:27:49;28.85;;;14.27;;
29382;SDS011;16365;51.598;7.668;2023-02-15T11:30:20;33.42;;;15.90;;
29382;SDS011;16365;51.598;7.668;2023-02-15T11:32:53;35.10;;;15.18;;
29382;SDS011;16365;51.598;7.668;2023-02-15T11:36:06;31.55;;;14.73;;
29382;SDS011;16365;51.598;7.668;2023-02-15T11:38:28;30.48;;;14.07;;
29382;SDS011;16365;51.598;7.668;2023-02-15T11:41:18;32.92;;;14.27;;
29382;SDS011;16365;51.598;7.668;2023-02-15T11:46:37;31.77;;;14.25;;
29382;SDS011;16365;51.598;7.668;2023-02-15T11:49:09;30.35;;;14.40;;
29382;SDS011;16365;51.598;7.668;2023-02-15T11:51:52;32.15;;;13.25;;
29382;SDS011;16365;51.598;7.668;2023-02-15T11:54:20;36.75;;;14.35;;
29382;SDS011;16365;51.598;7.668;2023-02-15T11:56:52;30.17;;;13.45;;
29382;SDS011;16365;51.598;7.668;2023-02-15T11:59:21;27.95;;;13.07;;
29382;SDS011;16365;51.598;7.668;2023-02-15T12:01:56;29.23;;;13.70;;
29382;SDS011;16365;51.598;7.668;2023-02-15T12:04:26;26.50;;;12.85;;
29382;SDS011;16365;51.598;7.668;2023-02-15T12:09:49;28.13;;;12.65;;
29382;SDS011;16365;51.598;7.668;2023-02-15T12:12:23;35.65;;;12.00;;
29382;SDS011;16365;51.598;7.668;2023-02-15T12:14:53;23.20;;;11.90;;
29382;SDS011;16365;51.598;7.668;2023-02-15T12:17:37;27.88;;;12.45;;
29382;SDS011;16365;51.598;7.668;2023-02-15T12:22:54;21.98;;;10.93;;
29382;SDS011;16365;51.598;7.668;2023-02-15T12:25:30;25.63;;;11.35;;
29382;SDS011;16365;51.598;7.668;2023-02-15T12:28:03;29.48;;;11.77;;
29382;SDS011;16365;51.598;7.668;2023-02-15T12:30:42;27.33;;;11.55;;
29382;SDS011;16365;51.598;7.668;2023-02-15T12:33:18;26.65;;;11.18;;
29382;SDS011;16365;51.598;7.668;2023-02-15T12:35:54;26.60;;;11.35;;
29382;SDS011;16365;51.598;7.668;2023-02-15T12:38:23;21.98;;;11.13;;
29382;SDS011;16365;51.598;7.668;2023-02-15T12:41:01;28.77;;;12.30;;
29382;SDS011;16365;51.598;7.668;2023-02-15T12:43:47;28.67;;;11.88;;
29382;SDS011;16365;51.598;7.668;2023-02-15T12:46:21;25.55;;;11.07;;
29382;SDS011;16365;51.598;7.668;2023-02-15T12:49:33;25.13;;;11.63;;
29382;SDS011;16365;51.598;7.668;2023-02-15T12:51:49;23.38;;;10.95;;
29382;SDS011;16365;51.598;7.668;2023-02-15T12:54:24;26.88;;;11.57;;
29382;SDS011;16365;51.598;7.668;2023-02-15T13:02:47;27.30;;;12.25;;
29382;SDS011;16365;51.598;7.668;2023-02-15T13:08:11;25.83;;;11.35;;
29382;SDS011;16365;51.598;7.668;2023-02-15T13:13:21;27.20;;;12.05;;
29382;SDS011;16365;51.598;7.668;2023-02-15T13:15:50;31.10;;;12.80;;
29382;SDS011;16365;51.598;7.668;2023-02-15T13:18:25;29.70;;;12.63;;
29382;SDS011;16365;51.598;7.668;2023-02-15T13:21:09;31.85;;;12.63;;
29382;SDS011;16365;51.598;7.668;2023-02-15T13:23:39;28.13;;;13.10;;
29382;SDS011;16365;51.598;7.668;2023-02-15T13:26:15;27.23;;;12.43;;
29382;SDS011;16365;51.598;7.668;2023-02-15T13:28:49;27.45;;;12.23;;
29382;SDS011;16365;51.598;7.668;2023-02-15T13:31:20;30.25;;;12.82;;
29382;SDS011;16365;51.598;7.668;2023-02-15T13:33:51;24.13;;;10.77;;
29382;SDS011;16365;51.598;7.668;2023-02-15T13:36:23;22.23;;;10.80;;
29382;SDS011;16365;51.598;7.668;2023-02-15T13:39:13;24.90;;;10.88;;
29382;SDS011;16365;51.598;7.668;2023-02-15T13:41:58;30.35;;;10.18;;
29382;SDS011;16365;51.598;7.668;2023-02-15T13:44:49;17.40;;;8.30;;
29382;SDS011;16365;51.598;7.668;2023-02-15T13:47:26;20.33;;;9.02;;
29382;SDS011;16365;51.598;7.668;2023-02-15T13:53:10;28.60;;;9.45;;
29382;SDS011;16365;51.598;7.668;2023-02-15T13:55:56;17.42;;;8.63;;
29382;SDS011;16365;51.598;7.668;2023-02-15T13:58:36;14.90;;;7.97;;
29382;SDS011;16365;51.598;7.668;2023-02-15T14:01:21;20.73;;;8.23;;
29382;SDS011;16365;51.598;7.668;2023-02-15T14:04:07;22.38;;;8.40;;
29382;SDS011;16365;51.598;7.668;2023-02-15T14:09:30;20.98;;;8.57;;
29382;SDS011;16365;51.598;7.668;2023-02-15T14:12:17;15.95;;;7.53;;
29382;SDS011;16365;51.598;7.668;2023-02-15T14:15:08;16.45;;;8.27;;
29382;SDS011;16365;51.598;7.668;2023-02-15T14:26:03;17.55;;;8.13;;
29382;SDS011;16365;51.598;7.668;2023-02-15T14:28:56;17.88;;;9.13;;
29382;SDS011;16365;51.598;7.668;2023-02-15T14:31:42;21.27;;;9.55;;
29382;SDS011;16365;51.598;7.668;2023-02-15T14:34:24;20.45;;;9.88;;
29382;SDS011;16365;51.598;7.668;2023-02-15T14:36:56;17.20;;;8.75;;
29382;SDS011;16365;51.598;7.668;2023-02-15T14:42:23;20.20;;;9.13;;
29382;SDS011;16365;51.598;7.668;2023-02-15T14:47:33;19.98;;;9.43;;
29382;SDS011;16365;51.598;7.668;2023-02-15T14:50:32;22.33;;;9.50;;
29382;SDS011;16365;51.598;7.668;2023-02-15T15:01:30;21.35;;;8.88;;
29382;SDS011;16365;51.598;7.668;2023-02-15T15:04:00;18.65;;;8.15;;
29382;SDS011;16365;51.598;7.668;2023-02-15T15:06:34;22.73;;;8.60;;
29382;SDS011;16365;51.598;7.668;2023-02-15T15:11:46;21.98;;;8.57;;
29382;SDS011;16365;51.598;7.668;2023-02-15T15:17:04;18.33;;;8.15;;
29382;SDS011;16365;51.598;7.668;2023-02-15T15:22:22;21.00;;;8.95;;
29382;SDS011;16365;51.598;7.668;2023-02-15T15:25:02;20.27;;;9.30;;
29382;SDS011;16365;51.598;7.668;2023-02-15T15:35:27;29.70;;;9.00;;
29382;SDS011;16365;51.598;7.668;2023-02-15T15:46:57;22.92;;;9.25;;
29382;SDS011;16365;51.598;7.668;2023-02-15T15:49:36;26.15;;;10.18;;
29382;SDS011;16365;51.598;7.668;2023-02-15T15:54:41;20.55;;;8.60;;
29382;SDS011;16365;51.598;7.668;2023-02-15T15:57:43;27.95;;;9.68;;
29382;SDS011;16365;51.598;7.668;2023-02-15T16:00:15;21.88;;;9.43;;
29382;SDS011;16365;51.598;7.668;2023-02-15T16:02:56;22.10;;;9.82;;
29382;SDS011;16365;51.598;7.668;2023-02-15T16:05:23;40.70;;;11.02;;
29382;SDS011;16365;51.598;7.668;2023-02-15T16:07:50;25.08;;;10.80;;
29382;SDS011;16365;51.598;7.668;2023-02-15T16:10:23;29.70;;;9.20;;
29382;SDS011;16365;51.598;7.668;2023-02-15T16:12:54;27.08;;;9.25;;
29382;SDS011;16365;51.598;7.668;2023-02-15T16:15:25;27.67;;;8.60;;
29382;SDS011;16365;51.598;7.668;2023-02-15T16:18:01;26.65;;;10.93;;
29382;SDS011;16365;51.598;7.668;2023-02-15T16:20:32;26.02;;;10.00;;
29382;SDS011;16365;51.598;7.668;2023-02-15T16:25:48;29.35;;;10.65;;
29382;SDS011;16365;51.598;7.668;2023-02-15T16:28:50;27.23;;;9.98;;
29382;SDS011;16365;51.598;7.668;2023-02-15T16:31:19;26.67;;;10.30;;
29382;SDS011;16365;51.598;7.668;2023-02-15T16:33:48;27.67;;;10.82;;
29382;SDS011;16365;51.598;7.668;2023-02-15T16:36:26;32.85;;;10.63;;
29382;SDS011;16365;51.598;7.668;2023-02-15T16:41:24;20.30;;;9.80;;
29382;SDS011;16365;51.598;7.668;2023-02-15T16:44:05;29.35;;;10.73;;
29382;SDS011;16365;51.598;7.668;2023-02-15T16:46:40;38.25;;;12.10;;
29382;SDS011;16365;51.598;7.668;2023-02-15T16:49:16;44.55;;;12.05;;
29382;SDS011;16365;51.598;7.668;2023-02-15T16:51:56;32.67;;;10.77;;
29382;SDS011;16365;51.598;7.668;2023-02-15T16:54:27;25.83;;;11.18;;
29382;SDS011;16365;51.598;7.668;2023-02-15T16:56:55;36.42;;;11.48;;
29382;SDS011;16365;51.598;7.668;2023-02-15T17:02:05;27.80;;;12.18;;
29382;SDS011;16365;51.598;7.668;2023-02-15T17:07:40;34.45;;;10.73;;
29382;SDS011;16365;51.598;7.668;2023-02-15T17:10:28;33.05;;;11.27;;
29382;SDS011;16365;51.598;7.668;2023-02-15T17:13:03;22.13;;;10.10;;
29382;SDS011;16365;51.598;7.668;2023-02-15T17:15:37;36.42;;;11.43;;
29382;SDS011;16365;51.598;7.668;2023-02-15T17:18:18;23.13;;;10.43;;
29382;SDS011;16365;51.598;7.668;2023-02-15T17:20:48;30.92;;;11.55;;
29382;SDS011;16365;51.598;7.668;2023-02-15T17:25:57;27.23;;;11.35;;
29382;SDS011;16365;51.598;7.668;2023-02-15T17:28:27;22.08;;;10.15;;
29382;SDS011;16365;51.598;7.668;2023-02-15T17:30:57;24.90;;;9.85;;
29382;SDS011;16365;51.598;7.668;2023-02-15T17:33:25;23.17;;;11.13;;
29382;SDS011;16365;51.598;7.668;2023-02-15T17:41:23;36.30;;;13.95;;
29382;SDS011;16365;51.598;7.668;2023-02-15T17:43:50;39.72;;;12.63;;
29382;SDS011;16365;51.598;7.668;2023-02-15T17:46:16;36.08;;;13.48;;
29382;SDS011;16365;51.598;7.668;2023-02-15T17:48:46;42.05;;;13.18;;
29382;SDS011;16365;51.598;7.668;2023-02-15T17:51:14;28.80;;;12.82;;
29382;SDS011;16365;51.598;7.668;2023-02-15T17:53:42;31.92;;;12.25;;